sensor_id;sensor_type;location;lat;lon;timestamp;P1;durP1;ratioP1;P2;durP2;ratioP2
58152;SDS011;43967;51.634;5.566;2022-07-29T00:04:39;5.78;;;1.50;;
58152;SDS011;43967;51.634;5.566;2022-07-29T00:09:40;6.67;;;1.77;;
58152;SDS011;43967;51.634;5.566;2022-07-29T00:14:41;6.07;;;1.67;;
58152;SDS011;43967;51.634;5.566;2022-07-29T00:19:42;6.15;;;1.60;;
58152;SDS011;43967;51.634;5.566;2022-07-29T00:24:43;5.50;;;1.80;;
58152;SDS011;43967;51.634;5.566;2022-07-29T00:29:44;5.93;;;1.90;;
58152;SDS011;43967;51.634;5.566;2022-07-29T00:34:45;6.18;;;1.77;;
58152;SDS011;43967;51.634;5.566;2022-07-29T00:39:46;5.37;;;1.70;;
58152;SDS011;43967;51.634;5.566;2022-07-29T00:44:47;4.83;;;1.33;;
58152;SDS011;43967;51.634;5.566;2022-07-29T00:49:48;6.28;;;1.60;;
58152;SDS011;43967;51.634;5.566;2022-07-29T00:54:49;5.78;;;1.70;;
58152;SDS011;43967;51.634;5.566;2022-07-29T00:59:50;7.23;;;1.70;;
58152;SDS011;43967;51.634;5.566;2022-07-29T01:04:52;6.80;;;1.88;;
58152;SDS011;43967;51.634;5.566;2022-07-29T01:09:54;5.43;;;1.60;;
58152;SDS011;43967;51.634;5.566;2022-07-29T01:14:56;5.93;;;1.77;;
58152;SDS011;43967;51.634;5.566;2022-07-29T01:30:38;6.13;;;1.40;;
58152;SDS011;43967;51.634;5.566;2022-07-29T01:35:42;4.90;;;1.70;;
58152;SDS011;43967;51.634;5.566;2022-07-29T01:40:45;6.00;;;1.63;;
58152;SDS011;43967;51.634;5.566;2022-07-29T01:45:52;5.30;;;1.77;;
58152;SDS011;43967;51.634;5.566;2022-07-29T01:51:07;6.20;;;1.97;;
58152;SDS011;43967;51.634;5.566;2022-07-29T01:56:19;5.28;;;1.50;;
58152;SDS011;43967;51.634;5.566;2022-07-29T02:01:23;5.68;;;1.33;;
58152;SDS011;43967;51.634;5.566;2022-07-29T02:06:26;5.17;;;1.40;;
58152;SDS011;43967;51.634;5.566;2022-07-29T02:11:33;6.00;;;2.10;;
58152;SDS011;43967;51.634;5.566;2022-07-29T02:16:35;5.30;;;1.52;;
58152;SDS011;43967;51.634;5.566;2022-07-29T02:21:38;5.90;;;1.60;;
58152;SDS011;43967;51.634;5.566;2022-07-29T02:26:41;6.13;;;2.20;;
58152;SDS011;43967;51.634;5.566;2022-07-29T02:31:43;6.28;;;1.90;;
58152;SDS011;43967;51.634;5.566;2022-07-29T02:36:46;5.90;;;1.88;;
58152;SDS011;43967;51.634;5.566;2022-07-29T02:41:50;5.20;;;1.30;;
58152;SDS011;43967;51.634;5.566;2022-07-29T02:47:03;5.80;;;1.40;;
58152;SDS011;43967;51.634;5.566;2022-07-29T02:57:43;5.20;;;1.40;;
58152;SDS011;43967;51.634;5.566;2022-07-29T03:02:50;5.55;;;1.40;;
58152;SDS011;43967;51.634;5.566;2022-07-29T03:07:55;4.80;;;1.33;;
58152;SDS011;43967;51.634;5.566;2022-07-29T03:13:07;5.90;;;1.57;;
58152;SDS011;43967;51.634;5.566;2022-07-29T03:18:09;5.23;;;1.40;;
58152;SDS011;43967;51.634;5.566;2022-07-29T03:23:11;5.05;;;1.60;;
58152;SDS011;43967;51.634;5.566;2022-07-29T03:28:12;5.22;;;1.70;;
58152;SDS011;43967;51.634;5.566;2022-07-29T03:33:13;4.93;;;1.30;;
58152;SDS011;43967;51.634;5.566;2022-07-29T03:38:14;6.80;;;1.80;;
58152;SDS011;43967;51.634;5.566;2022-07-29T03:43:15;5.22;;;1.60;;
58152;SDS011;43967;51.634;5.566;2022-07-29T03:48:19;5.53;;;1.63;;
58152;SDS011;43967;51.634;5.566;2022-07-29T03:53:22;4.45;;;1.33;;
58152;SDS011;43967;51.634;5.566;2022-07-29T03:58:23;5.13;;;1.75;;
58152;SDS011;43967;51.634;5.566;2022-07-29T04:03:27;6.50;;;1.60;;
58152;SDS011;43967;51.634;5.566;2022-07-29T04:08:28;5.57;;;1.67;;
58152;SDS011;43967;51.634;5.566;2022-07-29T04:13:30;5.13;;;1.40;;
58152;SDS011;43967;51.634;5.566;2022-07-29T04:18:32;5.20;;;1.70;;
58152;SDS011;43967;51.634;5.566;2022-07-29T04:23:33;11.33;;;1.90;;
58152;SDS011;43967;51.634;5.566;2022-07-29T04:28:34;7.07;;;1.50;;
58152;SDS011;43967;51.634;5.566;2022-07-29T04:33:36;5.60;;;1.60;;
58152;SDS011;43967;51.634;5.566;2022-07-29T04:38:37;6.00;;;1.60;;
58152;SDS011;43967;51.634;5.566;2022-07-29T04:43:38;4.97;;;1.40;;
58152;SDS011;43967;51.634;5.566;2022-07-29T04:48:39;6.03;;;1.75;;
58152;SDS011;43967;51.634;5.566;2022-07-29T04:53:41;5.40;;;1.77;;
58152;SDS011;43967;51.634;5.566;2022-07-29T04:58:42;6.93;;;1.90;;
58152;SDS011;43967;51.634;5.566;2022-07-29T05:03:43;5.18;;;1.60;;
58152;SDS011;43967;51.634;5.566;2022-07-29T05:08:44;6.53;;;1.98;;
58152;SDS011;43967;51.634;5.566;2022-07-29T05:13:45;5.90;;;1.60;;
58152;SDS011;43967;51.634;5.566;2022-07-29T05:18:46;10.10;;;3.22;;
58152;SDS011;43967;51.634;5.566;2022-07-29T05:23:47;7.28;;;3.00;;
58152;SDS011;43967;51.634;5.566;2022-07-29T05:28:51;9.27;;;3.10;;
58152;SDS011;43967;51.634;5.566;2022-07-29T05:33:55;7.80;;;3.00;;
58152;SDS011;43967;51.634;5.566;2022-07-29T05:38:57;8.57;;;3.10;;
58152;SDS011;43967;51.634;5.566;2022-07-29T05:43:59;8.60;;;3.30;;
58152;SDS011;43967;51.634;5.566;2022-07-29T05:49:00;9.83;;;3.30;;
58152;SDS011;43967;51.634;5.566;2022-07-29T05:54:01;9.52;;;3.78;;
58152;SDS011;43967;51.634;5.566;2022-07-29T05:59:02;10.60;;;3.30;;
58152;SDS011;43967;51.634;5.566;2022-07-29T06:04:03;7.20;;;3.10;;
58152;SDS011;43967;51.634;5.566;2022-07-29T06:09:05;11.68;;;3.72;;
58152;SDS011;43967;51.634;5.566;2022-07-29T06:14:06;8.48;;;3.28;;
58152;SDS011;43967;51.634;5.566;2022-07-29T06:19:07;7.33;;;3.83;;
58152;SDS011;43967;51.634;5.566;2022-07-29T06:24:08;7.85;;;3.15;;
58152;SDS011;43967;51.634;5.566;2022-07-29T06:29:10;10.52;;;3.45;;
58152;SDS011;43967;51.634;5.566;2022-07-29T06:34:11;10.40;;;3.57;;
58152;SDS011;43967;51.634;5.566;2022-07-29T06:39:12;7.90;;;3.17;;
58152;SDS011;43967;51.634;5.566;2022-07-29T06:44:14;9.27;;;3.50;;
58152;SDS011;43967;51.634;5.566;2022-07-29T06:49:15;9.40;;;3.00;;
58152;SDS011;43967;51.634;5.566;2022-07-29T06:54:16;8.27;;;3.20;;
58152;SDS011;43967;51.634;5.566;2022-07-29T06:59:17;10.07;;;3.72;;
58152;SDS011;43967;51.634;5.566;2022-07-29T07:04:18;8.32;;;3.30;;
58152;SDS011;43967;51.634;5.566;2022-07-29T07:09:19;7.77;;;3.80;;
58152;SDS011;43967;51.634;5.566;2022-07-29T07:14:21;9.38;;;3.28;;
58152;SDS011;43967;51.634;5.566;2022-07-29T07:19:22;8.70;;;3.28;;
58152;SDS011;43967;51.634;5.566;2022-07-29T07:30:24;8.93;;;4.00;;
58152;SDS011;43967;51.634;5.566;2022-07-29T07:35:30;8.85;;;3.97;;
58152;SDS011;43967;51.634;5.566;2022-07-29T07:40:34;10.68;;;4.25;;
58152;SDS011;43967;51.634;5.566;2022-07-29T07:45:36;9.97;;;3.67;;
58152;SDS011;43967;51.634;5.566;2022-07-29T07:50:37;7.72;;;3.50;;
58152;SDS011;43967;51.634;5.566;2022-07-29T07:55:42;10.88;;;4.15;;
58152;SDS011;43967;51.634;5.566;2022-07-29T08:00:43;10.73;;;4.17;;
58152;SDS011;43967;51.634;5.566;2022-07-29T08:05:44;9.05;;;3.83;;
58152;SDS011;43967;51.634;5.566;2022-07-29T08:10:46;11.05;;;4.00;;
58152;SDS011;43967;51.634;5.566;2022-07-29T08:15:47;11.23;;;4.90;;
58152;SDS011;43967;51.634;5.566;2022-07-29T08:20:48;7.90;;;4.37;;
58152;SDS011;43967;51.634;5.566;2022-07-29T08:25:49;9.13;;;3.83;;
58152;SDS011;43967;51.634;5.566;2022-07-29T08:30:50;9.18;;;3.75;;
58152;SDS011;43967;51.634;5.566;2022-07-29T08:35:51;9.23;;;3.30;;
58152;SDS011;43967;51.634;5.566;2022-07-29T08:40:53;9.68;;;3.95;;
58152;SDS011;43967;51.634;5.566;2022-07-29T08:45:54;9.85;;;3.47;;
58152;SDS011;43967;51.634;5.566;2022-07-29T08:50:56;9.33;;;3.30;;
58152;SDS011;43967;51.634;5.566;2022-07-29T08:55:58;8.73;;;2.97;;
58152;SDS011;43967;51.634;5.566;2022-07-29T09:01:00;8.57;;;3.00;;
58152;SDS011;43967;51.634;5.566;2022-07-29T09:06:03;8.37;;;2.67;;
58152;SDS011;43967;51.634;5.566;2022-07-29T09:11:04;10.17;;;2.90;;
58152;SDS011;43967;51.634;5.566;2022-07-29T09:16:05;8.73;;;3.05;;
58152;SDS011;43967;51.634;5.566;2022-07-29T09:21:08;8.65;;;2.92;;
58152;SDS011;43967;51.634;5.566;2022-07-29T09:26:10;8.67;;;3.20;;
58152;SDS011;43967;51.634;5.566;2022-07-29T09:31:11;8.00;;;3.00;;
58152;SDS011;43967;51.634;5.566;2022-07-29T09:36:12;8.00;;;2.78;;
58152;SDS011;43967;51.634;5.566;2022-07-29T09:41:13;10.83;;;2.60;;
58152;SDS011;43967;51.634;5.566;2022-07-29T09:46:15;8.23;;;2.95;;
58152;SDS011;43967;51.634;5.566;2022-07-29T09:51:16;10.60;;;3.05;;
58152;SDS011;43967;51.634;5.566;2022-07-29T09:56:28;9.30;;;2.93;;
58152;SDS011;43967;51.634;5.566;2022-07-29T10:01:40;10.67;;;3.00;;
58152;SDS011;43967;51.634;5.566;2022-07-29T10:06:58;7.45;;;2.92;;
58152;SDS011;43967;51.634;5.566;2022-07-29T10:17:07;9.37;;;2.73;;
58152;SDS011;43967;51.634;5.566;2022-07-29T10:22:09;8.65;;;2.63;;
58152;SDS011;43967;51.634;5.566;2022-07-29T10:27:11;8.77;;;3.05;;
58152;SDS011;43967;51.634;5.566;2022-07-29T10:43:14;16.02;;;9.07;;
58152;SDS011;43967;51.634;5.566;2022-07-29T10:48:19;14.90;;;8.70;;
58152;SDS011;43967;51.634;5.566;2022-07-29T10:53:21;14.03;;;7.77;;
58152;SDS011;43967;51.634;5.566;2022-07-29T10:58:23;10.93;;;6.72;;
58152;SDS011;43967;51.634;5.566;2022-07-29T11:09:18;10.67;;;3.83;;
58152;SDS011;43967;51.634;5.566;2022-07-29T11:15:03;7.82;;;3.47;;
58152;SDS011;43967;51.634;5.566;2022-07-29T11:25:36;9.80;;;3.20;;
58152;SDS011;43967;51.634;5.566;2022-07-29T11:30:47;9.30;;;3.05;;
58152;SDS011;43967;51.634;5.566;2022-07-29T11:46:42;10.60;;;3.27;;
58152;SDS011;43967;51.634;5.566;2022-07-29T11:51:55;9.88;;;3.25;;
58152;SDS011;43967;51.634;5.566;2022-07-29T11:56:57;8.98;;;2.67;;
58152;SDS011;43967;51.634;5.566;2022-07-29T12:01:59;7.83;;;3.10;;
58152;SDS011;43967;51.634;5.566;2022-07-29T12:07:00;7.43;;;3.05;;
58152;SDS011;43967;51.634;5.566;2022-07-29T12:12:01;7.20;;;3.00;;
58152;SDS011;43967;51.634;5.566;2022-07-29T12:17:02;7.60;;;3.00;;
58152;SDS011;43967;51.634;5.566;2022-07-29T12:22:03;7.95;;;2.72;;
58152;SDS011;43967;51.634;5.566;2022-07-29T12:27:04;9.77;;;3.00;;
58152;SDS011;43967;51.634;5.566;2022-07-29T12:32:05;9.40;;;2.87;;
58152;SDS011;43967;51.634;5.566;2022-07-29T12:37:08;9.90;;;2.87;;
58152;SDS011;43967;51.634;5.566;2022-07-29T12:42:13;7.57;;;2.80;;
58152;SDS011;43967;51.634;5.566;2022-07-29T12:47:18;9.95;;;3.08;;
58152;SDS011;43967;51.634;5.566;2022-07-29T12:52:27;8.97;;;2.73;;
58152;SDS011;43967;51.634;5.566;2022-07-29T12:57:44;10.15;;;2.58;;
58152;SDS011;43967;51.634;5.566;2022-07-29T13:02:46;6.95;;;2.80;;
58152;SDS011;43967;51.634;5.566;2022-07-29T13:07:56;7.93;;;2.67;;
58152;SDS011;43967;51.634;5.566;2022-07-29T13:13:14;7.97;;;2.35;;
58152;SDS011;43967;51.634;5.566;2022-07-29T13:18:31;7.78;;;2.53;;
58152;SDS011;43967;51.634;5.566;2022-07-29T13:23:34;8.57;;;3.43;;
58152;SDS011;43967;51.634;5.566;2022-07-29T13:28:35;7.37;;;2.33;;
58152;SDS011;43967;51.634;5.566;2022-07-29T13:33:36;9.15;;;3.15;;
58152;SDS011;43967;51.634;5.566;2022-07-29T13:38:37;7.75;;;2.13;;
58152;SDS011;43967;51.634;5.566;2022-07-29T13:43:39;6.57;;;2.30;;
58152;SDS011;43967;51.634;5.566;2022-07-29T13:48:40;8.77;;;2.60;;
58152;SDS011;43967;51.634;5.566;2022-07-29T13:53:41;7.43;;;2.55;;
58152;SDS011;43967;51.634;5.566;2022-07-29T13:58:43;7.33;;;2.70;;
58152;SDS011;43967;51.634;5.566;2022-07-29T14:03:44;6.53;;;2.38;;
58152;SDS011;43967;51.634;5.566;2022-07-29T14:08:45;9.90;;;3.10;;
58152;SDS011;43967;51.634;5.566;2022-07-29T14:13:46;6.77;;;2.47;;
58152;SDS011;43967;51.634;5.566;2022-07-29T14:18:47;8.10;;;2.83;;
58152;SDS011;43967;51.634;5.566;2022-07-29T14:23:48;7.50;;;3.08;;
58152;SDS011;43967;51.634;5.566;2022-07-29T14:28:49;7.97;;;3.22;;
58152;SDS011;43967;51.634;5.566;2022-07-29T14:33:50;7.43;;;2.67;;
58152;SDS011;43967;51.634;5.566;2022-07-29T14:38:51;8.10;;;2.90;;
58152;SDS011;43967;51.634;5.566;2022-07-29T14:43:52;7.45;;;2.92;;
58152;SDS011;43967;51.634;5.566;2022-07-29T14:48:53;10.30;;;3.00;;
58152;SDS011;43967;51.634;5.566;2022-07-29T14:53:54;9.05;;;2.90;;
58152;SDS011;43967;51.634;5.566;2022-07-29T14:58:56;8.88;;;2.60;;
58152;SDS011;43967;51.634;5.566;2022-07-29T15:03:57;7.03;;;2.77;;
58152;SDS011;43967;51.634;5.566;2022-07-29T15:09:01;8.37;;;2.57;;
58152;SDS011;43967;51.634;5.566;2022-07-29T15:14:02;8.50;;;2.70;;
58152;SDS011;43967;51.634;5.566;2022-07-29T15:19:03;7.60;;;2.70;;
58152;SDS011;43967;51.634;5.566;2022-07-29T15:24:04;9.20;;;2.50;;
58152;SDS011;43967;51.634;5.566;2022-07-29T15:29:06;10.40;;;2.80;;
58152;SDS011;43967;51.634;5.566;2022-07-29T15:34:07;8.35;;;2.60;;
58152;SDS011;43967;51.634;5.566;2022-07-29T15:39:08;8.80;;;2.90;;
58152;SDS011;43967;51.634;5.566;2022-07-29T15:44:09;9.77;;;2.83;;
58152;SDS011;43967;51.634;5.566;2022-07-29T15:49:10;7.93;;;2.53;;
58152;SDS011;43967;51.634;5.566;2022-07-29T15:54:11;11.83;;;2.60;;
58152;SDS011;43967;51.634;5.566;2022-07-29T15:59:12;9.40;;;3.00;;
58152;SDS011;43967;51.634;5.566;2022-07-29T16:04:13;10.02;;;2.97;;
58152;SDS011;43967;51.634;5.566;2022-07-29T16:09:15;12.43;;;2.95;;
58152;SDS011;43967;51.634;5.566;2022-07-29T16:14:18;8.03;;;2.43;;
58152;SDS011;43967;51.634;5.566;2022-07-29T16:19:20;8.43;;;2.60;;
58152;SDS011;43967;51.634;5.566;2022-07-29T16:24:26;8.35;;;2.55;;
58152;SDS011;43967;51.634;5.566;2022-07-29T16:29:27;7.57;;;2.80;;
58152;SDS011;43967;51.634;5.566;2022-07-29T16:34:28;9.68;;;2.60;;
58152;SDS011;43967;51.634;5.566;2022-07-29T16:39:29;6.35;;;2.25;;
58152;SDS011;43967;51.634;5.566;2022-07-29T16:44:31;9.00;;;2.47;;
58152;SDS011;43967;51.634;5.566;2022-07-29T16:49:32;7.20;;;2.70;;
58152;SDS011;43967;51.634;5.566;2022-07-29T16:54:36;7.15;;;2.58;;
58152;SDS011;43967;51.634;5.566;2022-07-29T16:59:37;7.68;;;2.60;;
58152;SDS011;43967;51.634;5.566;2022-07-29T17:04:38;6.40;;;2.40;;
58152;SDS011;43967;51.634;5.566;2022-07-29T17:09:39;5.82;;;2.05;;
58152;SDS011;43967;51.634;5.566;2022-07-29T17:14:41;9.90;;;2.67;;
58152;SDS011;43967;51.634;5.566;2022-07-29T17:19:44;6.57;;;2.40;;
58152;SDS011;43967;51.634;5.566;2022-07-29T17:24:46;6.78;;;2.22;;
58152;SDS011;43967;51.634;5.566;2022-07-29T17:29:47;7.43;;;2.30;;
58152;SDS011;43967;51.634;5.566;2022-07-29T17:34:48;7.03;;;2.30;;
58152;SDS011;43967;51.634;5.566;2022-07-29T17:39:49;7.07;;;2.37;;
58152;SDS011;43967;51.634;5.566;2022-07-29T17:44:50;8.23;;;2.42;;
58152;SDS011;43967;51.634;5.566;2022-07-29T17:49:51;7.10;;;2.60;;
58152;SDS011;43967;51.634;5.566;2022-07-29T17:54:52;8.83;;;2.67;;
58152;SDS011;43967;51.634;5.566;2022-07-29T17:59:53;8.32;;;2.70;;
58152;SDS011;43967;51.634;5.566;2022-07-29T18:04:54;10.15;;;2.40;;
58152;SDS011;43967;51.634;5.566;2022-07-29T18:09:55;9.20;;;2.60;;
58152;SDS011;43967;51.634;5.566;2022-07-29T18:14:56;9.10;;;2.65;;
58152;SDS011;43967;51.634;5.566;2022-07-29T18:19:58;10.40;;;3.00;;
58152;SDS011;43967;51.634;5.566;2022-07-29T18:25:01;7.50;;;3.10;;
58152;SDS011;43967;51.634;5.566;2022-07-29T18:30:05;9.13;;;3.37;;
58152;SDS011;43967;51.634;5.566;2022-07-29T18:35:07;13.30;;;3.03;;
58152;SDS011;43967;51.634;5.566;2022-07-29T18:40:08;11.38;;;3.08;;
58152;SDS011;43967;51.634;5.566;2022-07-29T18:45:10;9.43;;;3.73;;
58152;SDS011;43967;51.634;5.566;2022-07-29T18:50:11;9.52;;;3.97;;
58152;SDS011;43967;51.634;5.566;2022-07-29T18:55:14;8.38;;;3.45;;
58152;SDS011;43967;51.634;5.566;2022-07-29T19:00:16;9.13;;;3.77;;
58152;SDS011;43967;51.634;5.566;2022-07-29T19:05:17;11.55;;;3.83;;
58152;SDS011;43967;51.634;5.566;2022-07-29T19:10:18;13.25;;;4.13;;
58152;SDS011;43967;51.634;5.566;2022-07-29T19:15:19;8.50;;;3.17;;
58152;SDS011;43967;51.634;5.566;2022-07-29T19:20:20;9.10;;;3.33;;
58152;SDS011;43967;51.634;5.566;2022-07-29T19:25:21;9.15;;;3.03;;
58152;SDS011;43967;51.634;5.566;2022-07-29T19:30:23;8.45;;;3.35;;
58152;SDS011;43967;51.634;5.566;2022-07-29T19:35:24;8.57;;;2.80;;
58152;SDS011;43967;51.634;5.566;2022-07-29T19:40:26;8.90;;;3.00;;
58152;SDS011;43967;51.634;5.566;2022-07-29T19:45:28;11.77;;;3.08;;
58152;SDS011;43967;51.634;5.566;2022-07-29T19:50:29;12.30;;;3.50;;
58152;SDS011;43967;51.634;5.566;2022-07-29T19:55:31;7.93;;;3.03;;
58152;SDS011;43967;51.634;5.566;2022-07-29T20:00:35;8.68;;;2.85;;
58152;SDS011;43967;51.634;5.566;2022-07-29T20:05:38;10.60;;;3.17;;
58152;SDS011;43967;51.634;5.566;2022-07-29T20:10:39;9.77;;;3.10;;
58152;SDS011;43967;51.634;5.566;2022-07-29T20:15:43;9.57;;;2.70;;
58152;SDS011;43967;51.634;5.566;2022-07-29T20:20:44;7.85;;;2.80;;
58152;SDS011;43967;51.634;5.566;2022-07-29T20:25:45;9.30;;;2.80;;
58152;SDS011;43967;51.634;5.566;2022-07-29T20:30:46;10.02;;;3.50;;
58152;SDS011;43967;51.634;5.566;2022-07-29T20:35:47;10.55;;;3.45;;
58152;SDS011;43967;51.634;5.566;2022-07-29T20:40:50;11.00;;;3.80;;
58152;SDS011;43967;51.634;5.566;2022-07-29T20:45:51;12.88;;;5.35;;
58152;SDS011;43967;51.634;5.566;2022-07-29T20:50:52;16.35;;;6.68;;
58152;SDS011;43967;51.634;5.566;2022-07-29T20:55:53;13.13;;;5.10;;
58152;SDS011;43967;51.634;5.566;2022-07-29T21:00:54;10.90;;;4.23;;
58152;SDS011;43967;51.634;5.566;2022-07-29T21:05:58;11.57;;;4.63;;
58152;SDS011;43967;51.634;5.566;2022-07-29T21:10:59;12.55;;;4.10;;
58152;SDS011;43967;51.634;5.566;2022-07-29T21:16:01;9.90;;;3.63;;
58152;SDS011;43967;51.634;5.566;2022-07-29T21:21:03;10.35;;;3.40;;
58152;SDS011;43967;51.634;5.566;2022-07-29T21:26:04;10.60;;;3.33;;
58152;SDS011;43967;51.634;5.566;2022-07-29T21:31:07;8.23;;;3.63;;
58152;SDS011;43967;51.634;5.566;2022-07-29T21:36:13;8.95;;;2.88;;
58152;SDS011;43967;51.634;5.566;2022-07-29T21:41:14;8.00;;;2.67;;
58152;SDS011;43967;51.634;5.566;2022-07-29T21:46:15;7.93;;;2.80;;
58152;SDS011;43967;51.634;5.566;2022-07-29T21:51:16;8.33;;;3.10;;
58152;SDS011;43967;51.634;5.566;2022-07-29T21:56:17;9.57;;;2.65;;
58152;SDS011;43967;51.634;5.566;2022-07-29T22:01:18;7.38;;;2.85;;
58152;SDS011;43967;51.634;5.566;2022-07-29T22:06:19;6.87;;;2.73;;
58152;SDS011;43967;51.634;5.566;2022-07-29T22:11:20;8.45;;;2.70;;
58152;SDS011;43967;51.634;5.566;2022-07-29T22:16:21;9.18;;;2.50;;
58152;SDS011;43967;51.634;5.566;2022-07-29T22:21:22;7.17;;;2.40;;
58152;SDS011;43967;51.634;5.566;2022-07-29T22:26:23;16.33;;;2.75;;
58152;SDS011;43967;51.634;5.566;2022-07-29T22:31:24;7.38;;;2.78;;
58152;SDS011;43967;51.634;5.566;2022-07-29T22:36:25;6.33;;;2.50;;
58152;SDS011;43967;51.634;5.566;2022-07-29T22:41:26;6.70;;;2.70;;
58152;SDS011;43967;51.634;5.566;2022-07-29T22:46:27;8.02;;;2.25;;
58152;SDS011;43967;51.634;5.566;2022-07-29T22:51:29;6.30;;;2.15;;
58152;SDS011;43967;51.634;5.566;2022-07-29T22:56:30;7.13;;;2.37;;
58152;SDS011;43967;51.634;5.566;2022-07-29T23:01:31;7.07;;;2.25;;
58152;SDS011;43967;51.634;5.566;2022-07-29T23:06:32;7.20;;;2.40;;
58152;SDS011;43967;51.634;5.566;2022-07-29T23:11:33;7.07;;;2.53;;
58152;SDS011;43967;51.634;5.566;2022-07-29T23:16:34;6.35;;;2.38;;
58152;SDS011;43967;51.634;5.566;2022-07-29T23:21:35;6.95;;;2.50;;
58152;SDS011;43967;51.634;5.566;2022-07-29T23:26:36;6.93;;;2.53;;
58152;SDS011;43967;51.634;5.566;2022-07-29T23:31:37;6.17;;;2.43;;
58152;SDS011;43967;51.634;5.566;2022-07-29T23:36:38;8.23;;;2.95;;
58152;SDS011;43967;51.634;5.566;2022-07-29T23:41:39;6.43;;;2.20;;
58152;SDS011;43967;51.634;5.566;2022-07-29T23:46:40;6.90;;;2.20;;
58152;SDS011;43967;51.634;5.566;2022-07-29T23:51:42;6.53;;;2.60;;
58152;SDS011;43967;51.634;5.566;2022-07-29T23:56:43;6.82;;;2.33;;
